Weather at Fairplains Airpark

Public forecast

Using degrees Fahrenheit for public forecast. Weather courtesy of forecast.io.

Closest aviation weather report (METAR) to Fairplains Airpark

Closest report is Ionia County Airport, 13.7 nm (25.4 km) SSE. Retrieved 2020/09/19 08:10 UTC (21 minutes ago):

KY70 190810Z AUTO 00000KT 10SM CLR 03/01 A3040 RMK AO2

Closest aviation forecast (TAF) to Fairplains Airpark

Closest forecast is Gerald R. Ford International Airport, 23.3 nm (43.2 km) SW. Retrieved 2020/09/19 06:42 UTC (2 hours ago):

TAF KGRR 190540Z 1906/2006 VRB03KT P6SM SKC FM191400 11007KT P6SM SKC